Irini — SYZA — position and weather

sailwx.info

Track history (hours):
 
Tides and Currents Weather Stations Pressure Air Temp Water Temp Dewpoint Dewpoint Depression Visibility Wind Speed Wind Dir Waves Ship Positions

Irini

Last reported at 2015-Aug-29 22:17 UTC. Time now 2015-Aug-30 18:06 UTC.
Position N 37°54' E 024°33'.

Length 137 m; draft 7.5 m.

Type: Ship (hazmat cat A). MMSI: 240052000.

Date/timePositionNaut miles runAvg speedWind from/ knotsBaromVisibWave heightAir tempDewpointWater temp
2015-Aug-29 22:17N 37°54' E 024°33'7 8.9
2015-Aug-29 21:27N 37°49' E 024°26'20 9.6
2015-Aug-29 19:23N 37°35' E 024°07'11 9.8
2015-Aug-29 18:14N 37°35' E 023°53'4 6.3
2015-Aug-29 17:33N 37°37' E 023°48'10 9.8
2015-Aug-29 16:33N 37°44' E 023°40'1110.7
2015-Aug-29 15:33N 37°54' E 023°36'8 7.9
2015-Aug-29 14:33N 38°01' E 023°31'1 1.1
2015-Aug-29 13:32N 38°02' E 023°31'0 0.0
2015-Aug-29 12:32N 38°02' E 023°31'0 0.0
2015-Aug-29 11:32N 38°02' E 023°31'0 0.0
2015-Aug-29 10:32N 38°02' E 023°31'0 0.0
2015-Aug-29 09:32N 38°02' E 023°31'0 0.0
2015-Aug-29 08:23N 38°02' E 023°31'0 0.0
2015-Aug-29 07:29N 38°02' E 023°31'0 0.0
2015-Aug-29 06:32N 38°02' E 023°31'0 0.0
2015-Aug-29 05:20N 38°02' E 023°31'0 0.0
2015-Aug-29 04:32N 38°02' E 023°31'0 0.0
2015-Aug-29 03:32N 38°02' E 023°31'0 0.0
2015-Aug-29 02:29N 38°02' E 023°31'0 0.0
2015-Aug-29 01:32N 38°02' E 023°31'0 0.0
2015-Aug-29 00:29N 38°02' E 023°31'0 0.0
2015-Aug-28 23:29N 38°02' E 023°31'0 0.0
2015-Aug-28 22:32N 38°02' E 023°31'0 0.0
2015-Aug-28 21:23N 38°02' E 023°31'0 0.0
2015-Aug-28 20:32N 38°02' E 023°31'0 0.0
2015-Aug-28 19:32N 38°02' E 023°31'0 0.0
2015-Aug-28 18:26N 38°02' E 023°31'0 0.0
2015-Aug-28 17:26N 38°02' E 023°31'0 0.0
2015-Aug-28 16:32N 38°02' E 023°31'0 0.0
2015-Aug-28 15:17N 38°02' E 023°31'0 0.0
2015-Aug-28 14:32N 38°02' E 023°31'0 0.0
2015-Aug-28 13:32N 38°02' E 023°31'0 0.0
2015-Aug-28 12:32N 38°02' E 023°31'0 0.0
2015-Aug-28 11:23N 38°02' E 023°31'0 0.0
2015-Aug-28 10:32N 38°02' E 023°31'0 0.0
2015-Aug-28 09:29N 38°02' E 023°31'0 0.5
2015-Aug-28 08:33N 38°02' E 023°31'7 6.7
2015-Aug-28 07:33N 37°56' E 023°35'3 2.9
2015-Aug-28 06:33N 37°53' E 023°36'7 6.9
2015-Aug-28 05:33N 37°47' E 023°41'1010.1
2015-Aug-28 04:33N 37°39' E 023°49'1410.9
2015-Aug-28 03:18N 37°37' E 024°05'1111.4
2015-Aug-28 02:20N 37°43' E 024°17'3910.3
2015-Aug-27 22:30N 38°21' E 024°30'  
2015-Aug-24 14:33N 37°51' E 024°28'21 9.6
2015-Aug-24 12:24N 37°38' E 024°08'10 9.8
2015-Aug-24 11:21N 37°36' E 023°56'910.9
2015-Aug-24 10:33N 37°39' E 023°45'1110.8
2015-Aug-24 09:33N 37°48' E 023°38'10 9.6
2015-Aug-24 08:33N 37°57' E 023°34'5 4.2
2015-Aug-24 07:28N 38°01' E 023°32'0 0.0
2015-Aug-24 06:31N 38°01' E 023°32'0 0.0
2015-Aug-24 05:28N 38°01' E 023°32'0 0.0
2015-Aug-24 04:28N 38°01' E 023°32'0 0.0
2015-Aug-24 03:31N 38°01' E 023°32'0 0.0
2015-Aug-24 02:31N 38°01' E 023°32'0 0.0
2015-Aug-24 01:25N 38°01' E 023°32'0 0.0
2015-Aug-24 00:28N 38°01' E 023°32'0 0.0
2015-Aug-23 23:31N 38°01' E 023°32'0 0.0
2015-Aug-23 22:31N 38°01' E 023°32'0 0.0
2015-Aug-23 21:31N 38°01' E 023°32'0 0.1
2015-Aug-23 20:28N 38°01' E 023°32'0 0.0
2015-Aug-23 19:16N 38°01' E 023°32'0 0.0
2015-Aug-23 18:31N 38°01' E 023°32'0 0.0
2015-Aug-23 17:28N 38°01' E 023°32'1 1.0
2015-Aug-23 16:29N 38°02' E 023°31'0 0.0
2015-Aug-23 15:26N 38°02' E 023°31'0 0.0
2015-Aug-23 14:29N 38°02' E 023°31'0 0.0
2015-Aug-23 13:32N 38°02' E 023°31'0 0.0
2015-Aug-23 12:29N 38°02' E 023°31'0 0.0
2015-Aug-23 11:26N 38°02' E 023°31'0 0.0
2015-Aug-23 10:32N 38°02' E 023°31'0 0.0
2015-Aug-23 09:29N 38°02' E 023°31'0 0.0
2015-Aug-23 08:29N 38°02' E 023°31'0 0.0
2015-Aug-23 07:32N 38°02' E 023°31'0 0.0
2015-Aug-23 06:20N 38°02' E 023°31'0 0.0
2015-Aug-23 05:32N 38°02' E 023°31'0 0.0
2015-Aug-23 04:29N 38°02' E 023°31'0 0.0
2015-Aug-23 03:32N 38°02' E 023°31'0 0.0
2015-Aug-23 02:32N 38°02' E 023°31'0 0.0
2015-Aug-23 01:32N 38°02' E 023°31'0 0.0
2015-Aug-23 00:32N 38°02' E 023°31'0 0.0
2015-Aug-22 23:32N 38°02' E 023°31'0 0.0
2015-Aug-22 22:20N 38°02' E 023°31'0 0.0
2015-Aug-22 21:29N 38°02' E 023°31'0 0.0
2015-Aug-22 20:32N 38°02' E 023°31'0 0.0
2015-Aug-22 19:32N 38°02' E 023°31'0 0.0
2015-Aug-22 18:32N 38°02' E 023°31'0 0.0
2015-Aug-22 17:29N 38°02' E 023°31'0 0.0
2015-Aug-22 16:29N 38°02' E 023°31'0 0.0
2015-Aug-22 15:32N 38°02' E 023°31'0 0.0
2015-Aug-22 14:29N 38°02' E 023°31'0 0.0
2015-Aug-22 13:29N 38°02' E 023°31'0 0.0
2015-Aug-22 12:32N 38°02' E 023°31'0 0.0
2015-Aug-22 11:29N 38°02' E 023°31'0 0.0
2015-Aug-22 10:29N 38°02' E 023°31'0 0.0
2015-Aug-22 09:29N 38°02' E 023°31'0 0.0
2015-Aug-22 08:32N 38°02' E 023°31'0 0.0
2015-Aug-22 07:32N 38°02' E 023°31'0 0.0
2015-Aug-22 06:29N 38°02' E 023°31'0 0.0
2015-Aug-22 05:32N 38°02' E 023°31'0 0.0
2015-Aug-22 04:29N 38°02' E 023°31'0 0.0
2015-Aug-22 03:29N 38°02' E 023°31'0 0.0
2015-Aug-22 02:29N 38°02' E 023°31'0 0.0
2015-Aug-22 01:29N 38°02' E 023°31'0 0.0
2015-Aug-22 00:29N 38°02' E 023°31'0 0.0
2015-Aug-21 23:29N 38°02' E 023°31'0 0.0
2015-Aug-21 22:26N 38°02' E 023°31'0 0.0
2015-Aug-21 21:32N 38°02' E 023°31'0 0.0
2015-Aug-21 20:32N 38°02' E 023°31'0 0.0
2015-Aug-21 19:32N 38°02' E 023°31'0 0.0
2015-Aug-21 18:29N 38°02' E 023°31'0 0.0
2015-Aug-21 17:23N 38°02' E 023°31'0 0.0
2015-Aug-21 16:32N 38°02' E 023°31'0 0.0
2015-Aug-21 15:32N 38°02' E 023°31'0 0.0
2015-Aug-21 14:26N 38°02' E 023°31'0 0.0
2015-Aug-21 13:23N 38°02' E 023°31'0 0.0
2015-Aug-21 12:32N 38°02' E 023°31'0 0.5
2015-Aug-21 11:34N 38°02' E 023°31'0 0.3
2015-Aug-21 10:31N 38°01' E 023°31'0 0.1
2015-Aug-21 09:31N 38°01' E 023°31'0 0.0
2015-Aug-21 08:31N 38°01' E 023°31'0 0.0
2015-Aug-21 07:31N 38°01' E 023°31'0 0.0
2015-Aug-21 06:31N 38°01' E 023°31'0 0.0
2015-Aug-21 05:31N 38°01' E 023°31'0 0.0
2015-Aug-21 04:31N 38°01' E 023°31'0 0.0
2015-Aug-21 03:25N 38°01' E 023°31'0 0.0
2015-Aug-21 02:31N 38°01' E 023°31'0 0.0
2015-Aug-21 01:31N 38°01' E 023°31'0 0.0
2015-Aug-21 00:31N 38°01' E 023°31'0 0.0
2015-Aug-20 23:31N 38°01' E 023°31'0 0.0
2015-Aug-20 22:31N 38°01' E 023°31'0 0.0
2015-Aug-20 21:31N 38°01' E 023°31'0 0.0
2015-Aug-20 20:31N 38°01' E 023°31'0 0.1
2015-Aug-20 19:31N 38°02' E 023°31'0 0.1
2015-Aug-20 18:31N 38°02' E 023°31'0 0.0
2015-Aug-20 17:31N 38°02' E 023°31'0 0.1
2015-Aug-20 16:31N 38°02' E 023°31'0 0.1
2015-Aug-20 15:25N 38°02' E 023°31'0 0.1
2015-Aug-20 14:31N 38°02' E 023°31'0 0.0
2015-Aug-20 13:31N 38°02' E 023°31'0 0.0
2015-Aug-20 12:25N 38°02' E 023°31'0 0.1
2015-Aug-20 11:31N 38°02' E 023°31'0 0.0
2015-Aug-20 10:31N 38°02' E 023°31'0 0.1
2015-Aug-20 09:31N 38°02' E 023°31'1 0.6
2015-Aug-20 08:24N 38°02' E 023°31'0 0.0
2015-Aug-20 07:33N 38°02' E 023°31'0 0.0
2015-Aug-20 06:33N 38°02' E 023°31'0 0.0
2015-Aug-20 05:33N 38°02' E 023°31'0 0.0
2015-Aug-20 04:33N 38°02' E 023°31'0 0.0
2015-Aug-20 03:33N 38°02' E 023°31'0 0.0
2015-Aug-20 02:33N 38°02' E 023°31'0 0.0
2015-Aug-20 01:33N 38°02' E 023°31'0 0.0
2015-Aug-20 00:27N 38°02' E 023°31'0 0.0
2015-Aug-19 23:33N 38°02' E 023°31'0 0.0
2015-Aug-19 22:24N 38°02' E 023°31'  
Track history (hours):
 
Tides and Currents Weather Stations Pressure Air Temp Water Temp Dewpoint Dewpoint Depression Visibility Wind Speed Wind Dir Waves Ship Positions

Irini

Last reported at 2015-Aug-29 22:17 UTC. Time now 2015-Aug-30 18:06 UTC.
Position N 37°54' E 024°33'.

Length 137 m; draft 7.5 m.

Type: Ship (hazmat cat A). MMSI: 240052000.

Date/timePositionNaut miles runAvg speedWind from/ knotsBaromVisibWave heightAir tempDewpointWater temp
2015-Aug-29 22:17N 37°54' E 024°33'7 8.9
2015-Aug-29 21:27N 37°49' E 024°26'20 9.6
2015-Aug-29 19:23N 37°35' E 024°07'11 9.8
2015-Aug-29 18:14N 37°35' E 023°53'4 6.3
2015-Aug-29 17:33N 37°37' E 023°48'10 9.8
2015-Aug-29 16:33N 37°44' E 023°40'1110.7
2015-Aug-29 15:33N 37°54' E 023°36'8 7.9
2015-Aug-29 14:33N 38°01' E 023°31'1 1.1
2015-Aug-29 13:32N 38°02' E 023°31'0 0.0
2015-Aug-29 12:32N 38°02' E 023°31'0 0.0
2015-Aug-29 11:32N 38°02' E 023°31'0 0.0
2015-Aug-29 10:32N 38°02' E 023°31'0 0.0
2015-Aug-29 09:32N 38°02' E 023°31'0 0.0
2015-Aug-29 08:23N 38°02' E 023°31'0 0.0
2015-Aug-29 07:29N 38°02' E 023°31'0 0.0
2015-Aug-29 06:32N 38°02' E 023°31'0 0.0
2015-Aug-29 05:20N 38°02' E 023°31'0 0.0
2015-Aug-29 04:32N 38°02' E 023°31'0 0.0
2015-Aug-29 03:32N 38°02' E 023°31'0 0.0
2015-Aug-29 02:29N 38°02' E 023°31'0 0.0
2015-Aug-29 01:32N 38°02' E 023°31'0 0.0
2015-Aug-29 00:29N 38°02' E 023°31'0 0.0
2015-Aug-28 23:29N 38°02' E 023°31'0 0.0
2015-Aug-28 22:32N 38°02' E 023°31'0 0.0
2015-Aug-28 21:23N 38°02' E 023°31'0 0.0
2015-Aug-28 20:32N 38°02' E 023°31'0 0.0
2015-Aug-28 19:32N 38°02' E 023°31'0 0.0
2015-Aug-28 18:26N 38°02' E 023°31'0 0.0
2015-Aug-28 17:26N 38°02' E 023°31'0 0.0
2015-Aug-28 16:32N 38°02' E 023°31'0 0.0
2015-Aug-28 15:17N 38°02' E 023°31'0 0.0
2015-Aug-28 14:32N 38°02' E 023°31'0 0.0
2015-Aug-28 13:32N 38°02' E 023°31'0 0.0
2015-Aug-28 12:32N 38°02' E 023°31'0 0.0
2015-Aug-28 11:23N 38°02' E 023°31'0 0.0
2015-Aug-28 10:32N 38°02' E 023°31'0 0.0
2015-Aug-28 09:29N 38°02' E 023°31'0 0.5
2015-Aug-28 08:33N 38°02' E 023°31'7 6.7
2015-Aug-28 07:33N 37°56' E 023°35'3 2.9
2015-Aug-28 06:33N 37°53' E 023°36'7 6.9
2015-Aug-28 05:33N 37°47' E 023°41'1010.1
2015-Aug-28 04:33N 37°39' E 023°49'1410.9
2015-Aug-28 03:18N 37°37' E 024°05'1111.4
2015-Aug-28 02:20N 37°43' E 024°17'3910.3
2015-Aug-27 22:30N 38°21' E 024°30'  
2015-Aug-24 14:33N 37°51' E 024°28'21 9.6
2015-Aug-24 12:24N 37°38' E 024°08'10 9.8
2015-Aug-24 11:21N 37°36' E 023°56'910.9
2015-Aug-24 10:33N 37°39' E 023°45'1110.8
2015-Aug-24 09:33N 37°48' E 023°38'10 9.6
2015-Aug-24 08:33N 37°57' E 023°34'5 4.2
2015-Aug-24 07:28N 38°01' E 023°32'0 0.0
2015-Aug-24 06:31N 38°01' E 023°32'0 0.0
2015-Aug-24 05:28N 38°01' E 023°32'0 0.0
2015-Aug-24 04:28N 38°01' E 023°32'0 0.0
2015-Aug-24 03:31N 38°01' E 023°32'0 0.0
2015-Aug-24 02:31N 38°01' E 023°32'0 0.0
2015-Aug-24 01:25N 38°01' E 023°32'0 0.0
2015-Aug-24 00:28N 38°01' E 023°32'0 0.0
2015-Aug-23 23:31N 38°01' E 023°32'0 0.0
2015-Aug-23 22:31N 38°01' E 023°32'0 0.0
2015-Aug-23 21:31N 38°01' E 023°32'0 0.1
2015-Aug-23 20:28N 38°01' E 023°32'0 0.0
2015-Aug-23 19:16N 38°01' E 023°32'0 0.0
2015-Aug-23 18:31N 38°01' E 023°32'0 0.0
2015-Aug-23 17:28N 38°01' E 023°32'1 1.0
2015-Aug-23 16:29N 38°02' E 023°31'0 0.0
2015-Aug-23 15:26N 38°02' E 023°31'0 0.0
2015-Aug-23 14:29N 38°02' E 023°31'0 0.0
2015-Aug-23 13:32N 38°02' E 023°31'0 0.0
2015-Aug-23 12:29N 38°02' E 023°31'0 0.0
2015-Aug-23 11:26N 38°02' E 023°31'0 0.0
2015-Aug-23 10:32N 38°02' E 023°31'0 0.0
2015-Aug-23 09:29N 38°02' E 023°31'0 0.0
2015-Aug-23 08:29N 38°02' E 023°31'0 0.0
2015-Aug-23 07:32N 38°02' E 023°31'0 0.0
2015-Aug-23 06:20N 38°02' E 023°31'0 0.0
2015-Aug-23 05:32N 38°02' E 023°31'0 0.0
2015-Aug-23 04:29N 38°02' E 023°31'0 0.0
2015-Aug-23 03:32N 38°02' E 023°31'0 0.0
2015-Aug-23 02:32N 38°02' E 023°31'0 0.0
2015-Aug-23 01:32N 38°02' E 023°31'0 0.0
2015-Aug-23 00:32N 38°02' E 023°31'0 0.0
2015-Aug-22 23:32N 38°02' E 023°31'0 0.0
2015-Aug-22 22:20N 38°02' E 023°31'0 0.0
2015-Aug-22 21:29N 38°02' E 023°31'0 0.0
2015-Aug-22 20:32N 38°02' E 023°31'0 0.0
2015-Aug-22 19:32N 38°02' E 023°31'0 0.0
2015-Aug-22 18:32N 38°02' E 023°31'0 0.0
2015-Aug-22 17:29N 38°02' E 023°31'0 0.0
2015-Aug-22 16:29N 38°02' E 023°31'0 0.0
2015-Aug-22 15:32N 38°02' E 023°31'0 0.0
2015-Aug-22 14:29N 38°02' E 023°31'0 0.0
2015-Aug-22 13:29N 38°02' E 023°31'0 0.0
2015-Aug-22 12:32N 38°02' E 023°31'0 0.0
2015-Aug-22 11:29N 38°02' E 023°31'0 0.0
2015-Aug-22 10:29N 38°02' E 023°31'0 0.0
2015-Aug-22 09:29N 38°02' E 023°31'0 0.0
2015-Aug-22 08:32N 38°02' E 023°31'0 0.0
2015-Aug-22 07:32N 38°02' E 023°31'0 0.0
2015-Aug-22 06:29N 38°02' E 023°31'0 0.0
2015-Aug-22 05:32N 38°02' E 023°31'0 0.0
2015-Aug-22 04:29N 38°02' E 023°31'0 0.0
2015-Aug-22 03:29N 38°02' E 023°31'0 0.0
2015-Aug-22 02:29N 38°02' E 023°31'0 0.0
2015-Aug-22 01:29N 38°02' E 023°31'0 0.0
2015-Aug-22 00:29N 38°02' E 023°31'0 0.0
2015-Aug-21 23:29N 38°02' E 023°31'0 0.0
2015-Aug-21 22:26N 38°02' E 023°31'0 0.0
2015-Aug-21 21:32N 38°02' E 023°31'0 0.0
2015-Aug-21 20:32N 38°02' E 023°31'0 0.0
2015-Aug-21 19:32N 38°02' E 023°31'0 0.0
2015-Aug-21 18:29N 38°02' E 023°31'0 0.0
2015-Aug-21 17:23N 38°02' E 023°31'0 0.0
2015-Aug-21 16:32N 38°02' E 023°31'0 0.0
2015-Aug-21 15:32N 38°02' E 023°31'0 0.0
2015-Aug-21 14:26N 38°02' E 023°31'0 0.0
2015-Aug-21 13:23N 38°02' E 023°31'0 0.0
2015-Aug-21 12:32N 38°02' E 023°31'0 0.5
2015-Aug-21 11:34N 38°02' E 023°31'0 0.3
2015-Aug-21 10:31N 38°01' E 023°31'0 0.1
2015-Aug-21 09:31N 38°01' E 023°31'0 0.0
2015-Aug-21 08:31N 38°01' E 023°31'0 0.0
2015-Aug-21 07:31N 38°01' E 023°31'0 0.0
2015-Aug-21 06:31N 38°01' E 023°31'0 0.0
2015-Aug-21 05:31N 38°01' E 023°31'0 0.0
2015-Aug-21 04:31N 38°01' E 023°31'0 0.0
2015-Aug-21 03:25N 38°01' E 023°31'0 0.0
2015-Aug-21 02:31N 38°01' E 023°31'0 0.0
2015-Aug-21 01:31N 38°01' E 023°31'0 0.0
2015-Aug-21 00:31N 38°01' E 023°31'0 0.0
2015-Aug-20 23:31N 38°01' E 023°31'0 0.0
2015-Aug-20 22:31N 38°01' E 023°31'0 0.0
2015-Aug-20 21:31N 38°01' E 023°31'0 0.0
2015-Aug-20 20:31N 38°01' E 023°31'0 0.1
2015-Aug-20 19:31N 38°02' E 023°31'0 0.1
2015-Aug-20 18:31N 38°02' E 023°31'0 0.0
2015-Aug-20 17:31N 38°02' E 023°31'0 0.1
2015-Aug-20 16:31N 38°02' E 023°31'0 0.1
2015-Aug-20 15:25N 38°02' E 023°31'0 0.1
2015-Aug-20 14:31N 38°02' E 023°31'0 0.0
2015-Aug-20 13:31N 38°02' E 023°31'0 0.0
2015-Aug-20 12:25N 38°02' E 023°31'0 0.1
2015-Aug-20 11:31N 38°02' E 023°31'0 0.0
2015-Aug-20 10:31N 38°02' E 023°31'0 0.1
2015-Aug-20 09:31N 38°02' E 023°31'1 0.6
2015-Aug-20 08:24N 38°02' E 023°31'0 0.0
2015-Aug-20 07:33N 38°02' E 023°31'0 0.0
2015-Aug-20 06:33N 38°02' E 023°31'0 0.0
2015-Aug-20 05:33N 38°02' E 023°31'0 0.0
2015-Aug-20 04:33N 38°02' E 023°31'0 0.0
2015-Aug-20 03:33N 38°02' E 023°31'0 0.0
2015-Aug-20 02:33N 38°02' E 023°31'0 0.0
2015-Aug-20 01:33N 38°02' E 023°31'0 0.0
2015-Aug-20 00:27N 38°02' E 023°31'0 0.0
2015-Aug-19 23:33N 38°02' E 023°31'0 0.0
2015-Aug-19 22:24N 38°02' E 023°31'  

Dump ship's entire track history